createdAt,value
2023-07-29T00:00:24.508Z,21.45
2023-07-29T00:03:16.560Z,23.30
2023-07-29T00:05:54.989Z,22.95
2023-07-29T00:08:26.942Z,19.58
2023-07-29T00:11:01.809Z,22.80
2023-07-29T00:13:36.332Z,23.88
2023-07-29T00:16:11.271Z,25.50
2023-07-29T00:18:45.609Z,27.77
2023-07-29T00:21:21.206Z,24.20
2023-07-29T00:23:53.069Z,31.90
2023-07-29T00:26:30.881Z,24.55
2023-07-29T00:29:02.983Z,28.02
2023-07-29T00:31:35.194Z,25.90
2023-07-29T00:34:07.106Z,24.00
2023-07-29T00:36:39.423Z,25.08
2023-07-29T00:39:11.588Z,23.90
2023-07-29T00:41:46.552Z,24.73
2023-07-29T00:44:18.370Z,30.90
2023-07-29T00:46:51.712Z,24.85
2023-07-29T00:49:24.045Z,31.25
2023-07-29T00:51:56.292Z,34.10
2023-07-29T00:54:28.250Z,28.40
2023-07-29T00:57:03.092Z,29.15
2023-07-29T00:59:36.288Z,29.27
2023-07-29T01:02:10.736Z,28.90
2023-07-29T01:04:42.650Z,33.72
2023-07-29T01:07:26.910Z,28.13
2023-07-29T01:10:04.901Z,25.25
2023-07-29T01:12:51.651Z,28.83
2023-07-29T01:15:29.194Z,27.25
2023-07-29T01:18:15.511Z,26.60
2023-07-29T01:20:51.508Z,28.20
2023-07-29T01:23:34.170Z,27.45
2023-07-29T01:26:07.275Z,27.83
2023-07-29T01:28:39.842Z,27.05
2023-07-29T01:31:21.030Z,27.90
2023-07-29T01:34:02.268Z,26.58
2023-07-29T01:36:40.153Z,27.02
2023-07-29T01:39:16.690Z,29.50
2023-07-29T01:41:50.049Z,26.30
2023-07-29T01:44:23.728Z,26.67
2023-07-29T01:46:56.237Z,26.17
2023-07-29T01:49:28.878Z,26.35
2023-07-29T01:52:01.209Z,28.52
2023-07-29T01:54:36.411Z,27.17
2023-07-29T01:57:08.838Z,26.83
2023-07-29T01:59:42.002Z,27.40
2023-07-29T02:02:14.301Z,24.55
2023-07-29T02:04:46.857Z,26.48
2023-07-29T02:07:19.066Z,26.77
2023-07-29T02:09:55.588Z,31.30
2023-07-29T02:12:28.052Z,34.05
2023-07-29T02:15:00.594Z,29.55
2023-07-29T02:17:32.899Z,23.15
2023-07-29T02:20:08.896Z,26.73
2023-07-29T02:22:41.291Z,32.42
2023-07-29T02:25:17.635Z,24.08
2023-07-29T02:27:49.907Z,30.83
2023-07-29T02:30:22.696Z,28.75
2023-07-29T02:32:55.013Z,30.63
2023-07-29T02:35:27.622Z,31.42
2023-07-29T02:37:59.849Z,29.67
2023-07-29T02:40:39.598Z,30.83
2023-07-29T02:43:11.896Z,28.98
2023-07-29T02:45:45.470Z,29.23
2023-07-29T02:48:24.151Z,33.60
2023-07-29T02:51:00.348Z,32.55
2023-07-29T02:53:32.630Z,35.92
2023-07-29T02:56:14.168Z,31.25
2023-07-29T02:58:48.668Z,32.75
2023-07-29T03:01:23.277Z,28.85
2023-07-29T03:04:01.533Z,30.40
2023-07-29T03:06:34.312Z,31.88
2023-07-29T03:09:06.731Z,27.48
2023-07-29T03:11:41.856Z,27.20
2023-07-29T03:14:14.290Z,30.88
2023-07-29T03:16:46.764Z,25.90
2023-07-29T03:19:19.968Z,29.40
2023-07-29T03:21:52.448Z,26.48
2023-07-29T03:24:24.687Z,29.73
2023-07-29T03:27:02.066Z,26.27
2023-07-29T03:29:37.176Z,26.90
2023-07-29T03:32:10.225Z,26.23
2023-07-29T03:34:42.671Z,25.63
2023-07-29T03:37:15.308Z,23.92
2023-07-29T03:39:47.529Z,27.92
2023-07-29T03:42:22.630Z,25.92
2023-07-29T03:44:54.825Z,23.73
2023-07-29T03:47:27.340Z,25.35
2023-07-29T03:49:59.624Z,25.15
2023-07-29T03:52:35.046Z,22.73
2023-07-29T03:55:07.828Z,23.25
2023-07-29T03:57:42.971Z,24.02
2023-07-29T04:00:15.729Z,22.52
2023-07-29T04:02:48.281Z,23.23
2023-07-29T04:05:20.729Z,23.83
2023-07-29T04:07:54.588Z,26.15
2023-07-29T04:10:26.846Z,21.65
2023-07-29T04:13:02.053Z,22.63
2023-07-29T04:15:49.884Z,21.35
2023-07-29T04:18:22.571Z,22.60
2023-07-29T04:20:54.757Z,24.83
2023-07-29T04:23:30.342Z,23.02
2023-07-29T04:26:18.726Z,20.85
2023-07-29T04:29:06.168Z,18.45
2023-07-29T04:31:38.594Z,19.30
2023-07-29T04:34:11.229Z,17.88
2023-07-29T04:36:43.458Z,17.15
2023-07-29T04:39:16.093Z,22.05
2023-07-29T04:41:48.357Z,17.33
2023-07-29T04:44:23.531Z,17.20
2023-07-29T04:46:55.744Z,17.38
2023-07-29T04:49:28.268Z,18.67
2023-07-29T04:52:00.605Z,21.75
2023-07-29T04:54:33.053Z,14.80
2023-07-29T04:57:05.409Z,17.65
2023-07-29T04:59:40.569Z,14.32
2023-07-29T05:02:15.110Z,16.17
2023-07-29T05:04:52.550Z,11.23
2023-07-29T05:07:24.750Z,11.95
2023-07-29T05:09:57.225Z,16.60
2023-07-29T05:12:33.507Z,14.88
2023-07-29T05:15:13.489Z,13.13
2023-07-29T05:17:45.783Z,14.68
2023-07-29T05:20:21.684Z,16.17
2023-07-29T05:22:55.167Z,14.48
2023-07-29T05:25:27.665Z,13.13
2023-07-29T05:27:59.984Z,14.05
2023-07-29T05:30:45.109Z,12.43
2023-07-29T05:33:21.017Z,12.38
2023-07-29T05:35:56.470Z,11.48
2023-07-29T05:38:28.838Z,11.20
2023-07-29T05:41:02.405Z,13.13
2023-07-29T05:43:34.615Z,11.52
2023-07-29T05:46:09.809Z,14.43
2023-07-29T05:48:42.194Z,10.95
2023-07-29T05:51:14.755Z,10.07
2023-07-29T05:53:47.004Z,8.93
2023-07-29T05:56:19.570Z,9.07
2023-07-29T05:58:51.894Z,7.63
2023-07-29T06:01:27.863Z,8.45
2023-07-29T06:04:00.257Z,10.60
2023-07-29T06:06:35.160Z,7.60
2023-07-29T06:09:09.513Z,6.65
2023-07-29T06:11:42.088Z,6.10
2023-07-29T06:14:14.407Z,6.22
2023-07-29T06:16:49.625Z,8.07
2023-07-29T06:19:22.925Z,9.77
2023-07-29T06:22:00.148Z,8.43
2023-07-29T06:24:32.486Z,8.05
2023-07-29T06:27:05.159Z,7.95
2023-07-29T06:29:37.490Z,6.50
2023-07-29T06:32:15.002Z,7.50
2023-07-29T06:35:01.994Z,6.45
2023-07-29T06:37:34.829Z,8.07
2023-07-29T06:40:11.323Z,6.30
2023-07-29T06:42:43.889Z,6.95
2023-07-29T06:45:17.070Z,6.45
2023-07-29T06:47:55.772Z,7.18
2023-07-29T06:50:42.346Z,7.28
2023-07-29T06:53:19.028Z,7.13
2023-07-29T06:55:51.387Z,6.38
2023-07-29T06:58:24.089Z,5.63
2023-07-29T07:00:57.723Z,7.72
2023-07-29T07:03:33.312Z,6.75
2023-07-29T07:06:07.110Z,7.78
2023-07-29T07:08:39.689Z,5.53
2023-07-29T07:11:12.189Z,8.07
2023-07-29T07:13:44.786Z,7.50
2023-07-29T07:16:17.057Z,7.00
2023-07-29T07:18:52.166Z,7.85
2023-07-29T07:21:26.822Z,6.72
2023-07-29T07:23:59.426Z,6.70
2023-07-29T07:26:31.772Z,7.15
2023-07-29T07:29:04.393Z,7.30
2023-07-29T07:31:39.575Z,8.20
2023-07-29T07:34:14.836Z,8.27
2023-07-29T07:36:46.728Z,7.93
2023-07-29T07:39:19.048Z,45.60
2023-07-29T07:41:51.028Z,10.98
2023-07-29T07:44:23.359Z,8.65
2023-07-29T07:46:55.295Z,8.70
2023-07-29T07:49:30.194Z,10.05
2023-07-29T07:52:02.088Z,7.68
2023-07-29T07:54:36.907Z,6.82
2023-07-29T07:57:10.108Z,8.20
2023-07-29T07:59:42.353Z,8.20
2023-07-29T08:02:16.748Z,5.93
2023-07-29T08:04:51.605Z,6.00
2023-07-29T08:07:23.547Z,5.63
2023-07-29T08:09:55.815Z,5.40
2023-07-29T08:12:27.792Z,5.45
2023-07-29T08:15:00.050Z,4.53
2023-07-29T08:17:31.983Z,10.57
2023-07-29T08:20:07.822Z,5.72
2023-07-29T08:22:39.933Z,6.07
2023-07-29T08:25:12.867Z,5.57
2023-07-29T08:30:40.671Z,4.88
2023-07-29T08:33:13.668Z,8.75
2023-07-29T08:35:52.730Z,5.28
2023-07-29T08:38:28.307Z,5.25
2023-07-29T08:41:09.196Z,4.97
2023-07-29T08:43:43.949Z,5.70
2023-07-29T08:46:17.578Z,5.03
2023-07-29T08:48:51.043Z,9.18
2023-07-29T08:51:29.532Z,7.82
2023-07-29T08:54:02.589Z,6.35
2023-07-29T08:56:35.408Z,4.65
2023-07-29T08:59:07.947Z,5.45
2023-07-29T09:01:43.237Z,3.97
2023-07-29T09:04:17.160Z,5.75
2023-07-29T09:06:54.567Z,4.90
2023-07-29T09:09:26.508Z,8.63
2023-07-29T09:11:58.839Z,11.05
2023-07-29T09:14:32.230Z,5.22
2023-07-29T09:17:04.705Z,4.63
2023-07-29T09:19:40.587Z,6.38
2023-07-29T09:35:02.725Z,3.92
2023-07-29T09:37:38.627Z,4.95
2023-07-29T09:40:17.972Z,3.88
2023-07-29T09:42:55.010Z,3.80
2023-07-29T09:45:30.229Z,4.05
2023-07-29T09:48:03.055Z,4.95
2023-07-29T09:50:55.326Z,4.88
2023-07-29T09:53:30.393Z,4.40
2023-07-29T09:56:07.317Z,3.92
2023-07-29T09:58:43.309Z,4.20
2023-07-29T10:01:18.019Z,4.07
2023-07-29T10:03:51.656Z,5.75
2023-07-29T10:06:27.553Z,3.53
2023-07-29T10:09:00.798Z,3.20
2023-07-29T10:11:34.376Z,4.35
2023-07-29T10:14:09.119Z,3.42
2023-07-29T10:16:46.736Z,4.43
2023-07-29T10:19:23.271Z,4.88
2023-07-29T10:22:00.649Z,3.10
2023-07-29T10:24:36.630Z,4.25
2023-07-29T10:27:11.308Z,5.68
2023-07-29T10:29:50.144Z,4.20
2023-07-29T10:32:27.768Z,5.93
2023-07-29T10:35:00.210Z,3.58
2023-07-29T10:37:34.927Z,5.35
2023-07-29T10:40:12.411Z,4.78
2023-07-29T10:43:05.626Z,3.65
2023-07-29T10:45:46.833Z,3.20
2023-07-29T10:48:45.224Z,3.05
2023-07-29T10:51:41.768Z,3.35
2023-07-29T10:54:18.890Z,3.03
2023-07-29T10:56:56.843Z,4.78
2023-07-29T10:59:38.011Z,3.40
2023-07-29T11:02:21.788Z,3.25
2023-07-29T11:04:55.735Z,2.80
2023-07-29T11:07:30.652Z,5.35
2023-07-29T11:10:10.409Z,4.28
2023-07-29T11:12:48.834Z,3.53
2023-07-29T11:15:23.173Z,8.20
2023-07-29T11:17:58.225Z,5.65
2023-07-29T11:20:39.236Z,7.22
2023-07-29T11:23:11.616Z,5.68
2023-07-29T11:25:49.146Z,10.63
2023-07-29T11:28:24.257Z,8.75
2023-07-29T11:30:56.616Z,10.65
2023-07-29T11:33:30.359Z,7.63
2023-07-29T11:36:02.487Z,3.95
2023-07-29T11:38:38.427Z,3.40
2023-07-29T11:41:13.047Z,2.97
2023-07-29T11:43:45.352Z,4.78
2023-07-29T11:46:17.299Z,3.78
2023-07-29T11:48:49.800Z,6.53
2023-07-29T11:51:22.025Z,4.15
2023-07-29T11:53:54.472Z,4.40
2023-07-29T11:56:33.737Z,2.75
2023-07-29T11:59:09.130Z,4.30
2023-07-29T12:01:41.130Z,4.03
2023-07-29T12:04:14.322Z,4.88
2023-07-29T12:06:46.792Z,4.32
2023-07-29T12:09:19.129Z,2.40
2023-07-29T12:11:56.417Z,3.03
2023-07-29T12:14:31.548Z,2.85
2023-07-29T12:17:05.918Z,2.67
2023-07-29T12:19:40.652Z,2.65
2023-07-29T12:22:14.266Z,2.72
2023-07-29T12:24:47.243Z,4.82
2023-07-29T12:27:22.108Z,3.63
2023-07-29T12:29:57.637Z,4.15
2023-07-29T12:32:31.180Z,4.38
2023-07-29T12:35:03.868Z,3.35
2023-07-29T12:37:40.409Z,3.53
2023-07-29T12:40:25.095Z,8.48
2023-07-29T12:43:02.316Z,5.15
2023-07-29T12:45:41.523Z,4.90
2023-07-29T12:48:18.594Z,4.80
2023-07-29T12:50:53.512Z,4.97
2023-07-29T12:53:28.252Z,4.75
2023-07-29T12:56:02.590Z,5.10
2023-07-29T12:58:37.532Z,5.10
2023-07-29T13:01:24.323Z,4.82
2023-07-29T13:04:11.074Z,5.28
2023-07-29T13:06:46.008Z,6.93
2023-07-29T13:09:18.213Z,7.85
2023-07-29T13:11:51.194Z,5.85
2023-07-29T13:14:27.691Z,6.15
2023-07-29T13:17:00.450Z,6.72
2023-07-29T13:19:34.936Z,6.18
2023-07-29T13:22:09.806Z,5.00
2023-07-29T13:24:42.427Z,4.18
2023-07-29T13:27:15.049Z,6.35
2023-07-29T13:29:50.276Z,4.90
2023-07-29T13:32:22.814Z,5.55
2023-07-29T13:34:55.175Z,4.43
2023-07-29T13:37:29.787Z,8.55
2023-07-29T13:40:05.131Z,4.70
2023-07-29T13:42:37.727Z,9.93
2023-07-29T13:45:13.828Z,4.13
2023-07-29T13:47:46.505Z,2.83
2023-07-29T13:50:22.400Z,3.22
2023-07-29T13:52:55.107Z,2.83
2023-07-29T13:55:32.185Z,4.15
2023-07-29T13:58:05.089Z,4.03
2023-07-29T14:00:47.408Z,3.67
2023-07-29T14:03:20.588Z,2.63
2023-07-29T14:05:55.486Z,4.28
2023-07-29T14:08:28.592Z,2.42
2023-07-29T14:11:00.912Z,6.53
2023-07-29T14:13:36.095Z,3.28
2023-07-29T14:16:11.303Z,3.45
2023-07-29T14:18:45.948Z,4.72
2023-07-29T14:21:20.947Z,8.80
2023-07-29T14:23:54.328Z,2.80
2023-07-29T14:26:27.344Z,2.67
2023-07-29T14:29:00.547Z,5.88
2023-07-29T14:31:38.294Z,3.85
2023-07-29T14:34:15.522Z,3.05
2023-07-29T14:36:54.787Z,3.28
2023-07-29T14:39:27.113Z,3.63
2023-07-29T14:41:59.187Z,2.45
2023-07-29T14:44:31.907Z,2.90
2023-07-29T14:47:08.518Z,3.47
2023-07-29T14:49:43.891Z,3.20
2023-07-29T14:52:16.088Z,2.65
2023-07-29T14:54:48.313Z,2.80
2023-07-29T14:57:23.517Z,2.40
2023-07-29T14:59:56.288Z,3.45
2023-07-29T15:02:31.236Z,2.40
2023-07-29T15:05:03.951Z,2.22
2023-07-29T15:07:35.928Z,2.00
2023-07-29T15:10:09.456Z,2.85
2023-07-29T15:12:41.350Z,2.95
2023-07-29T15:15:14.511Z,2.65
2023-07-29T15:17:49.296Z,4.63
2023-07-29T15:20:21.739Z,3.08
2023-07-29T15:22:53.790Z,3.78
2023-07-29T15:25:26.198Z,2.72
2023-07-29T15:27:59.636Z,2.38
2023-07-29T15:33:27.515Z,3.17
2023-07-29T15:36:02.692Z,9.05
2023-07-29T15:38:38.826Z,7.15
2023-07-29T15:41:14.713Z,7.07
2023-07-29T15:43:46.693Z,5.85
2023-07-29T15:46:19.240Z,5.03
2023-07-29T15:48:54.107Z,5.90
2023-07-29T15:51:26.875Z,5.25
2023-07-29T15:54:01.875Z,5.78
2023-07-29T15:56:38.019Z,8.60
2023-07-29T15:59:10.188Z,7.25
2023-07-29T16:01:42.562Z,6.28
2023-07-29T16:04:17.076Z,4.65
2023-07-29T16:06:49.359Z,6.00
2023-07-29T16:09:22.697Z,7.00
2023-07-29T16:11:55.079Z,5.05
2023-07-29T16:14:27.104Z,4.68
2023-07-29T16:16:59.467Z,6.88
2023-07-29T16:19:35.066Z,4.85
2023-07-29T16:22:17.057Z,5.97
2023-07-29T16:24:52.764Z,7.43
2023-07-29T16:27:25.516Z,6.22
2023-07-29T16:29:57.803Z,6.90
2023-07-29T16:32:30.616Z,5.95
2023-07-29T16:35:05.698Z,8.02
2023-07-29T16:37:40.563Z,6.45
2023-07-29T16:40:13.959Z,5.43
2023-07-29T16:42:49.757Z,6.82
2023-07-29T16:45:22.019Z,6.47
2023-07-29T16:47:57.811Z,12.82
2023-07-29T16:50:32.777Z,9.68
2023-07-29T16:53:05.362Z,7.85
2023-07-29T16:55:37.599Z,6.95
2023-07-29T16:58:10.159Z,7.78
2023-07-29T17:00:42.162Z,13.15
2023-07-29T17:03:14.966Z,9.98
2023-07-29T17:05:54.655Z,7.53
2023-07-29T17:08:26.914Z,8.73
2023-07-29T17:10:58.831Z,6.38
2023-07-29T17:13:31.155Z,7.15
2023-07-29T17:16:06.308Z,7.68
2023-07-29T17:18:40.403Z,7.38
2023-07-29T17:21:14.994Z,5.55
2023-07-29T17:23:53.684Z,7.03
2023-07-29T17:26:25.486Z,7.18
2023-07-29T17:28:57.801Z,6.35
2023-07-29T17:31:29.740Z,7.78
2023-07-29T17:34:02.276Z,6.43
2023-07-29T17:36:37.015Z,7.75
2023-07-29T17:39:09.977Z,6.75
2023-07-29T17:41:42.214Z,9.73
2023-07-29T17:44:14.578Z,8.50
2023-07-29T17:46:46.548Z,7.85
2023-07-29T17:49:18.948Z,8.85
2023-07-29T17:51:53.550Z,10.82
2023-07-29T17:54:31.474Z,13.80
2023-07-29T17:57:08.488Z,9.40
2023-07-29T17:59:40.758Z,14.25
2023-07-29T18:02:15.728Z,11.02
2023-07-29T18:04:51.065Z,11.45
2023-07-29T18:07:25.617Z,10.20
2023-07-29T18:09:57.975Z,8.77
2023-07-29T18:12:29.908Z,9.38
2023-07-29T18:15:02.284Z,8.45
2023-07-29T18:17:34.213Z,9.40
2023-07-29T18:20:07.085Z,9.63
2023-07-29T18:22:41.665Z,10.55
2023-07-29T18:25:16.622Z,10.55
2023-07-29T18:27:48.395Z,15.65
2023-07-29T18:30:20.643Z,15.73
2023-07-29T18:32:52.655Z,18.48
2023-07-29T18:35:24.984Z,8.50
2023-07-29T18:38:08.483Z,9.45
2023-07-29T18:40:41.796Z,9.77
2023-07-29T18:43:13.837Z,13.15
2023-07-29T18:45:47.720Z,9.88
2023-07-29T18:48:24.921Z,11.60
2023-07-29T18:50:57.348Z,9.38
2023-07-29T18:53:34.600Z,10.80
2023-07-29T18:56:28.137Z,11.68
2023-07-29T18:59:01.514Z,9.38
2023-07-29T19:01:36.601Z,11.07
2023-07-29T19:04:09.764Z,10.52
2023-07-29T19:06:42.221Z,15.20
2023-07-29T19:09:17.617Z,13.38
2023-07-29T19:11:49.932Z,17.70
2023-07-29T19:14:22.720Z,20.08
2023-07-29T19:16:55.021Z,12.40
2023-07-29T19:19:27.700Z,15.27
2023-07-29T19:22:01.019Z,15.60
2023-07-29T19:24:43.783Z,13.48
2023-07-29T19:27:16.696Z,13.95
2023-07-29T19:29:54.636Z,11.98
2023-07-29T19:32:28.710Z,11.32
2023-07-29T19:35:01.743Z,14.02
2023-07-29T19:37:34.481Z,14.68
2023-07-29T19:40:11.341Z,14.27
2023-07-29T19:42:49.117Z,15.45
2023-07-29T19:45:23.247Z,15.10
2023-07-29T19:47:58.060Z,13.90
2023-07-29T19:50:33.761Z,13.00
2023-07-29T19:53:08.526Z,16.17
2023-07-29T19:55:44.141Z,15.75
2023-07-29T19:58:19.494Z,14.02
2023-07-29T20:00:56.587Z,14.93
2023-07-29T20:03:28.854Z,16.30
2023-07-29T20:06:02.857Z,14.15
2023-07-29T20:08:35.030Z,12.88
2023-07-29T20:11:14.641Z,17.85
2023-07-29T20:13:49.277Z,18.48
2023-07-29T20:16:22.688Z,17.67
2023-07-29T20:18:54.823Z,19.02
2023-07-29T20:21:29.856Z,19.85
2023-07-29T20:24:06.265Z,16.80
2023-07-29T20:26:44.100Z,16.10
2023-07-29T20:29:16.177Z,16.25
2023-07-29T20:31:52.842Z,15.20
2023-07-29T20:34:25.088Z,15.32
2023-07-29T20:36:57.617Z,14.77
2023-07-29T20:39:29.717Z,13.73
2023-07-29T20:42:05.126Z,17.27
2023-07-29T20:44:37.200Z,17.65
2023-07-29T20:47:11.776Z,19.17
2023-07-29T20:49:47.703Z,18.60
2023-07-29T20:52:20.200Z,18.33
2023-07-29T20:54:52.357Z,18.95
2023-07-29T20:57:27.807Z,19.55
2023-07-29T21:00:00.921Z,20.02
2023-07-29T21:02:33.590Z,18.08
2023-07-29T21:05:06.735Z,18.65
2023-07-29T21:07:39.142Z,19.08
2023-07-29T21:10:11.455Z,17.42
2023-07-29T21:12:46.559Z,17.20
2023-07-29T21:15:19.034Z,20.65
2023-07-29T21:20:40.157Z,19.50
2023-07-29T21:23:12.642Z,20.83
2023-07-29T21:25:52.783Z,17.45
2023-07-29T21:28:30.150Z,16.92
2023-07-29T21:31:02.711Z,14.52
2023-07-29T21:33:35.300Z,15.90
2023-07-29T21:36:08.362Z,15.57
2023-07-29T21:38:42.350Z,18.15
2023-07-29T21:41:14.718Z,16.92
2023-07-29T21:43:49.942Z,17.13
2023-07-29T21:46:22.179Z,16.25
2023-07-29T21:48:54.703Z,16.45
2023-07-29T21:51:27.579Z,16.42
2023-07-29T21:54:00.051Z,16.52
2023-07-29T21:56:33.716Z,15.30
2023-07-29T21:59:09.079Z,16.52
2023-07-29T22:01:41.497Z,16.15
2023-07-29T22:04:14.027Z,18.73
2023-07-29T22:06:46.199Z,16.00
2023-07-29T22:09:19.048Z,19.60
2023-07-29T22:11:54.066Z,15.45
2023-07-29T22:14:29.888Z,14.38
2023-07-29T22:17:02.023Z,15.00
2023-07-29T22:19:34.572Z,16.50
2023-07-29T22:22:26.452Z,14.23
2023-07-29T22:24:59.048Z,15.10
2023-07-29T22:27:31.360Z,14.82
2023-07-29T22:30:13.637Z,15.45
2023-07-29T22:32:46.521Z,16.25
2023-07-29T22:35:19.584Z,15.45
2023-07-29T22:37:51.740Z,16.80
2023-07-29T22:40:24.205Z,16.35
2023-07-29T22:42:56.318Z,17.17
2023-07-29T22:45:31.458Z,17.58
2023-07-29T22:48:03.596Z,18.05
2023-07-29T22:50:36.258Z,16.95
2023-07-29T22:53:10.422Z,17.48
2023-07-29T22:55:45.538Z,20.85
2023-07-29T22:58:18.020Z,17.42
2023-07-29T23:00:55.861Z,19.27
2023-07-29T23:03:28.872Z,18.77
2023-07-29T23:06:01.491Z,18.67
2023-07-29T23:08:33.676Z,21.23
2023-07-29T23:11:06.599Z,17.83
2023-07-29T23:13:38.424Z,20.10
2023-07-29T23:16:41.723Z,17.83
2023-07-29T23:19:13.458Z,15.93
2023-07-29T23:21:45.542Z,17.45
2023-07-29T23:24:17.342Z,21.08
2023-07-29T23:26:52.131Z,19.42
2023-07-29T23:29:25.789Z,20.05
2023-07-29T23:32:03.936Z,16.58
2023-07-29T23:34:35.802Z,17.23
2023-07-29T23:37:08.884Z,16.45
2023-07-29T23:39:40.660Z,16.67
2023-07-29T23:42:12.837Z,15.32
2023-07-29T23:44:44.895Z,15.15
2023-07-29T23:47:19.667Z,16.15
2023-07-29T23:49:51.385Z,15.30
2023-07-29T23:52:24.699Z,14.13
2023-07-29T23:55:14.911Z,12.80
2023-07-29T23:57:49.724Z,12.45
